createdAt,value
2018-06-17T00:01:12.328Z,17.80
2018-06-17T00:03:41.039Z,17.90
2018-06-17T00:06:09.510Z,17.80
2018-06-17T00:08:38.168Z,17.80
2018-06-17T00:11:07.022Z,17.80
2018-06-17T00:13:35.624Z,17.70
2018-06-17T00:16:04.130Z,17.60
2018-06-17T00:18:32.619Z,17.60
2018-06-17T00:21:01.127Z,17.60
2018-06-17T00:23:29.742Z,17.60
2018-06-17T00:25:58.304Z,17.60
2018-06-17T00:28:26.797Z,17.60
2018-06-17T00:30:55.659Z,17.60
2018-06-17T00:33:24.223Z,17.50
2018-06-17T00:35:52.847Z,17.50
2018-06-17T00:38:21.616Z,17.50
2018-06-17T00:40:50.095Z,17.50
2018-06-17T00:43:18.886Z,17.50
2018-06-17T00:45:47.406Z,17.40
2018-06-17T00:48:15.917Z,17.50
2018-06-17T00:50:44.415Z,17.50
2018-06-17T00:53:13.219Z,17.50
2018-06-17T00:55:41.691Z,17.50
2018-06-17T00:58:10.231Z,17.40
2018-06-17T01:00:38.723Z,17.50
2018-06-17T01:03:07.206Z,17.40
2018-06-17T01:05:35.955Z,17.40
2018-06-17T01:08:04.458Z,17.30
2018-06-17T01:10:32.993Z,17.30
2018-06-17T01:15:29.815Z,17.30
2018-06-17T01:17:58.338Z,17.30
2018-06-17T01:22:55.051Z,17.30
2018-06-17T01:25:23.652Z,17.30
2018-06-17T01:27:52.241Z,17.30
2018-06-17T01:30:20.799Z,17.30
2018-06-17T01:32:49.383Z,17.30
2018-06-17T01:35:18.043Z,17.30
2018-06-17T01:37:46.555Z,17.30
2018-06-17T01:40:15.171Z,17.30
2018-06-17T01:42:43.682Z,17.30
2018-06-17T01:45:12.131Z,17.30
2018-06-17T01:47:40.719Z,17.20
2018-06-17T01:50:09.264Z,17.20
2018-06-17T01:52:37.754Z,17.20
2018-06-17T01:55:06.242Z,17.20
2018-06-17T01:57:34.771Z,17.20
2018-06-17T02:00:03.235Z,17.20
2018-06-17T02:02:31.711Z,17.20
2018-06-17T02:05:05.603Z,17.20
2018-06-17T02:10:13.166Z,17.20
2018-06-17T02:12:41.852Z,17.20
2018-06-17T02:15:10.317Z,17.20
2018-06-17T02:17:38.887Z,17.20
2018-06-17T02:20:07.379Z,17.10
2018-06-17T02:22:35.851Z,17.10
2018-06-17T02:25:04.331Z,17.10
2018-06-17T02:27:32.819Z,17.10
2018-06-17T02:30:01.425Z,17.10
2018-06-17T02:32:29.896Z,17.10
2018-06-17T02:34:58.366Z,17.10
2018-06-17T02:37:26.830Z,17.10
2018-06-17T02:39:55.447Z,17.00
2018-06-17T02:42:23.962Z,16.90
2018-06-17T02:44:57.775Z,16.80
2018-06-17T02:47:31.727Z,16.80
2018-06-17T02:50:05.620Z,16.80
2018-06-17T02:52:39.426Z,16.80
2018-06-17T02:55:08.011Z,16.70
2018-06-17T02:57:36.568Z,16.70
2018-06-17T03:00:05.111Z,16.70
2018-06-17T03:02:33.774Z,16.70
2018-06-17T03:05:02.240Z,16.70
2018-06-17T03:07:30.872Z,16.60
2018-06-17T03:09:59.382Z,16.50
2018-06-17T03:12:27.842Z,16.50
2018-06-17T03:14:56.503Z,16.50
2018-06-17T03:17:25.147Z,16.40
2018-06-17T03:19:53.799Z,16.40
2018-06-17T03:22:22.259Z,16.40
2018-06-17T03:27:29.578Z,16.30
2018-06-17T03:30:03.378Z,16.20
2018-06-17T03:32:37.031Z,16.20
2018-06-17T03:35:10.948Z,16.10
2018-06-17T03:37:39.747Z,16.00
2018-06-17T03:40:08.226Z,16.00
2018-06-17T03:42:36.815Z,16.10
2018-06-17T03:45:05.398Z,16.10
2018-06-17T03:47:33.920Z,16.00
2018-06-17T03:50:02.459Z,16.00
2018-06-17T03:52:31.102Z,16.00
2018-06-17T03:54:59.546Z,16.00
2018-06-17T03:57:28.054Z,16.00
2018-06-17T03:59:56.850Z,16.00
2018-06-17T04:02:25.310Z,16.00
2018-06-17T04:04:59.206Z,15.90
2018-06-17T04:07:27.746Z,15.90
2018-06-17T04:09:56.198Z,15.90
2018-06-17T04:12:24.842Z,15.90
2018-06-17T04:14:53.370Z,15.80
2018-06-17T04:17:22.022Z,15.80
2018-06-17T04:22:18.876Z,15.80
2018-06-17T04:24:47.315Z,15.80
2018-06-17T04:27:15.874Z,15.80
2018-06-17T04:29:44.402Z,15.70
2018-06-17T04:32:12.870Z,15.80
2018-06-17T04:34:41.358Z,15.70
2018-06-17T04:37:09.824Z,15.70
2018-06-17T04:39:38.294Z,15.80
2018-06-17T04:42:06.770Z,15.80
2018-06-17T04:44:35.323Z,15.80
2018-06-17T04:47:03.887Z,15.80
2018-06-17T04:49:32.418Z,15.80
2018-06-17T04:52:00.902Z,15.90
2018-06-17T04:54:29.559Z,15.90
2018-06-17T04:56:58.102Z,16.00
2018-06-17T04:59:26.679Z,16.00
2018-06-17T05:01:55.156Z,16.00
2018-06-17T05:04:23.603Z,16.10
2018-06-17T05:06:52.150Z,16.20
2018-06-17T05:09:20.618Z,16.20
2018-06-17T05:14:17.258Z,16.20
2018-06-17T05:16:45.707Z,16.30
2018-06-17T05:19:14.255Z,16.30
2018-06-17T05:21:42.730Z,16.30
2018-06-17T05:24:11.279Z,16.40
2018-06-17T05:26:39.964Z,16.40
2018-06-17T05:29:08.572Z,16.30
2018-06-17T05:31:37.013Z,16.30
2018-06-17T05:34:05.923Z,16.30
2018-06-17T05:36:34.911Z,16.40
2018-06-17T05:39:04.910Z,16.40
2018-06-17T05:41:33.390Z,16.40
2018-06-17T05:44:01.919Z,16.40
2018-06-17T05:46:30.418Z,16.40
2018-06-17T05:48:58.894Z,16.40
2018-06-17T05:51:27.563Z,16.40
2018-06-17T05:53:56.429Z,16.40
2018-06-17T05:56:24.896Z,16.40
2018-06-17T05:58:53.711Z,16.50
2018-06-17T06:01:22.303Z,16.50
2018-06-17T06:03:51.083Z,16.60
2018-06-17T06:06:19.851Z,16.60
2018-06-17T06:08:48.347Z,16.60
2018-06-17T06:11:17.054Z,16.70
2018-06-17T06:13:45.706Z,16.80
2018-06-17T06:16:14.234Z,16.90
2018-06-17T06:18:42.835Z,16.90
2018-06-17T06:21:11.375Z,17.00
2018-06-17T06:23:39.954Z,17.00
2018-06-17T06:26:08.565Z,17.00
2018-06-17T06:28:37.057Z,17.10
2018-06-17T06:31:05.691Z,17.10
2018-06-17T06:33:34.159Z,17.20
2018-06-17T06:36:02.839Z,17.20
2018-06-17T06:38:31.473Z,17.20
2018-06-17T06:40:59.951Z,17.20
2018-06-17T06:43:28.462Z,17.30
2018-06-17T06:45:57.000Z,17.30
2018-06-17T06:48:25.618Z,17.40
2018-06-17T06:50:54.114Z,17.50
2018-06-17T06:53:22.870Z,17.60
2018-06-17T06:55:51.411Z,17.60
2018-06-17T06:58:19.954Z,17.70
2018-06-17T07:00:48.542Z,17.70
2018-06-17T07:03:28.311Z,17.80
2018-06-17T07:06:08.108Z,17.90
2018-06-17T07:08:47.998Z,18.00
2018-06-17T07:11:16.552Z,18.00
2018-06-17T07:13:45.118Z,18.20
2018-06-17T07:16:24.918Z,18.20
2018-06-17T07:21:21.905Z,18.20
2018-06-17T07:23:50.548Z,18.20
2018-06-17T07:26:45.818Z,18.20
2018-06-17T07:29:27.083Z,18.10
2018-06-17T07:31:55.581Z,18.10
2018-06-17T07:34:24.223Z,18.20
2018-06-17T07:36:52.888Z,18.10
2018-06-17T07:40:31.737Z,18.00
2018-06-17T07:45:29.176Z,18.20
2018-06-17T07:47:57.752Z,18.30
2018-06-17T07:50:37.578Z,18.30
2018-06-17T07:53:15.938Z,18.30
2018-06-17T07:55:44.419Z,18.40
2018-06-17T07:58:13.619Z,18.50
2018-06-17T08:00:42.086Z,18.70
2018-06-17T08:03:10.840Z,18.70
2018-06-17T08:05:39.310Z,18.70
2018-06-17T08:08:07.831Z,18.70
2018-06-17T08:10:36.412Z,18.70
2018-06-17T08:13:04.948Z,18.70
2018-06-17T08:15:33.427Z,18.70
2018-06-17T08:18:02.119Z,18.70
2018-06-17T08:20:30.877Z,18.80
2018-06-17T08:22:59.774Z,18.80
2018-06-17T08:25:28.450Z,18.90
2018-06-17T08:27:56.975Z,18.90
2018-06-17T08:30:25.581Z,19.00
2018-06-17T08:32:54.156Z,19.10
2018-06-17T08:35:22.774Z,19.10
2018-06-17T08:37:51.248Z,19.10
2018-06-17T08:40:19.859Z,19.00
2018-06-17T08:42:48.435Z,18.90
2018-06-17T08:45:16.935Z,18.80
2018-06-17T08:47:45.456Z,18.90
2018-06-17T08:50:14.129Z,18.90
2018-06-17T08:52:42.783Z,18.90
2018-06-17T08:55:11.251Z,19.00
2018-06-17T08:57:39.862Z,18.90
2018-06-17T09:00:08.579Z,19.00
2018-06-17T09:02:37.079Z,18.90
2018-06-17T09:05:05.633Z,18.90
2018-06-17T09:07:34.315Z,18.90
2018-06-17T09:10:02.904Z,19.00
2018-06-17T09:12:31.411Z,19.10
2018-06-17T09:14:59.986Z,19.10
2018-06-17T09:17:28.626Z,19.00
2018-06-17T09:19:57.228Z,18.90
2018-06-17T09:22:25.838Z,18.70
2018-06-17T09:24:54.359Z,18.60
2018-06-17T09:27:22.887Z,18.50
2018-06-17T09:29:51.478Z,18.40
2018-06-17T09:32:19.979Z,18.40
2018-06-17T09:34:48.474Z,18.60
2018-06-17T09:37:17.149Z,18.80
2018-06-17T09:39:46.027Z,18.90
2018-06-17T09:42:14.731Z,19.10
2018-06-17T09:44:43.357Z,19.30
2018-06-17T09:47:11.903Z,19.40
2018-06-17T09:49:40.447Z,19.50
2018-06-17T09:52:09.113Z,19.40
2018-06-17T09:54:37.605Z,19.50
2018-06-17T09:57:06.210Z,19.50
2018-06-17T09:59:34.707Z,19.40
2018-06-17T10:02:03.534Z,19.50
2018-06-17T10:04:32.030Z,19.50
2018-06-17T10:07:00.639Z,19.50
2018-06-17T10:09:29.359Z,19.40
2018-06-17T10:11:57.907Z,19.30
2018-06-17T10:14:26.380Z,19.20
2018-06-17T10:16:54.997Z,19.20
2018-06-17T10:19:23.712Z,19.40
2018-06-17T10:21:52.495Z,19.40
2018-06-17T10:24:21.339Z,19.50
2018-06-17T10:26:49.940Z,19.70
2018-06-17T10:29:18.437Z,19.60
2018-06-17T10:31:46.950Z,19.60
2018-06-17T10:34:15.564Z,19.50
2018-06-17T10:36:44.095Z,19.50
2018-06-17T10:39:12.866Z,19.40
2018-06-17T10:41:41.635Z,19.60
2018-06-17T10:44:10.203Z,19.80
2018-06-17T10:46:38.697Z,20.00
2018-06-17T10:49:07.548Z,20.10
2018-06-17T10:51:36.079Z,20.20
2018-06-17T10:54:04.819Z,20.20
2018-06-17T10:56:33.621Z,20.30
2018-06-17T10:59:02.254Z,20.20
2018-06-17T11:01:30.755Z,20.20
2018-06-17T11:03:59.395Z,20.00
2018-06-17T11:06:27.902Z,19.90
2018-06-17T11:08:56.884Z,19.90
2018-06-17T11:11:25.486Z,19.90
2018-06-17T11:13:54.159Z,20.00
2018-06-17T11:16:22.858Z,20.00
2018-06-17T11:18:51.565Z,20.00
2018-06-17T11:21:20.091Z,20.00
2018-06-17T11:23:48.889Z,20.10
2018-06-17T11:26:17.635Z,20.00
2018-06-17T11:28:46.243Z,20.00
2018-06-17T11:31:14.871Z,20.00
2018-06-17T11:33:43.488Z,19.90
2018-06-17T11:36:12.169Z,19.90
2018-06-17T11:38:40.730Z,19.90
2018-06-17T11:41:09.423Z,19.80
2018-06-17T11:43:38.129Z,19.80
2018-06-17T11:46:06.640Z,19.70
2018-06-17T11:48:35.160Z,19.70
2018-06-17T11:51:03.673Z,19.80
2018-06-17T11:56:00.488Z,20.00
2018-06-17T11:58:29.199Z,19.90
2018-06-17T12:00:57.768Z,19.90
2018-06-17T12:03:26.373Z,19.80
2018-06-17T12:05:54.919Z,19.80
2018-06-17T12:08:23.608Z,19.80
2018-06-17T12:10:52.095Z,19.80
2018-06-17T12:13:20.775Z,19.70
2018-06-17T12:15:49.402Z,19.70
2018-06-17T12:18:17.946Z,19.60
2018-06-17T12:20:46.676Z,19.60
2018-06-17T12:23:15.409Z,19.50
2018-06-17T12:25:44.144Z,19.50
2018-06-17T12:28:12.650Z,19.60
2018-06-17T12:30:41.275Z,19.70
2018-06-17T12:33:09.839Z,19.90
2018-06-17T12:35:38.339Z,20.00
2018-06-17T12:38:07.062Z,19.90
2018-06-17T12:40:35.675Z,19.90
2018-06-17T12:43:04.452Z,19.90
2018-06-17T12:45:33.364Z,19.80
2018-06-17T12:48:02.180Z,19.80
2018-06-17T12:50:30.781Z,19.70
2018-06-17T12:52:59.271Z,19.60
2018-06-17T12:55:28.110Z,19.50
2018-06-17T12:57:56.688Z,19.50
2018-06-17T13:00:25.346Z,19.50
2018-06-17T13:02:53.912Z,19.50
2018-06-17T13:05:22.423Z,19.50
2018-06-17T13:07:51.230Z,19.50
2018-06-17T13:10:19.812Z,19.50
2018-06-17T13:12:48.413Z,19.50
2018-06-17T13:15:16.988Z,19.40
2018-06-17T13:17:45.468Z,19.40
2018-06-17T13:20:14.196Z,19.30
2018-06-17T13:22:42.747Z,19.30
2018-06-17T13:25:11.327Z,19.30
2018-06-17T13:30:08.383Z,19.10
2018-06-17T13:32:36.902Z,19.10
2018-06-17T13:35:05.882Z,19.00
2018-06-17T13:37:34.472Z,18.90
2018-06-17T13:40:03.168Z,18.80
2018-06-17T13:42:31.776Z,18.80
2018-06-17T13:45:00.297Z,18.70
2018-06-17T13:47:29.054Z,18.70
2018-06-17T13:49:57.727Z,18.70
2018-06-17T13:52:26.821Z,18.60
2018-06-17T13:54:55.518Z,18.60
2018-06-17T13:57:24.127Z,18.60
2018-06-17T13:59:52.610Z,18.60
2018-06-17T14:02:21.151Z,18.60
2018-06-17T14:04:49.672Z,18.60
2018-06-17T14:07:18.247Z,18.60
2018-06-17T14:09:46.974Z,18.60
2018-06-17T14:12:15.465Z,18.70
2018-06-17T14:14:43.972Z,18.70
2018-06-17T14:17:12.579Z,18.80
2018-06-17T14:19:41.107Z,18.80
2018-06-17T14:22:09.696Z,18.90
2018-06-17T14:24:38.219Z,19.10
2018-06-17T14:27:06.861Z,19.10
2018-06-17T14:29:35.730Z,19.30
2018-06-17T14:32:04.452Z,19.30
2018-06-17T14:34:32.971Z,19.40
2018-06-17T14:37:01.668Z,19.40
2018-06-17T14:39:30.325Z,19.40
2018-06-17T14:42:04.299Z,19.40
2018-06-17T14:44:38.307Z,19.40
2018-06-17T14:47:12.099Z,19.30
2018-06-17T14:49:45.987Z,19.30
2018-06-17T14:52:19.736Z,19.40
2018-06-17T14:54:48.404Z,19.40
2018-06-17T14:57:16.947Z,19.40
2018-06-17T14:59:45.533Z,19.40
2018-06-17T15:02:14.204Z,19.40
2018-06-17T15:04:42.811Z,19.40
2018-06-17T15:09:39.892Z,19.30
2018-06-17T15:12:08.398Z,19.20
2018-06-17T15:14:36.904Z,19.20
2018-06-17T15:17:05.842Z,19.10
2018-06-17T15:19:34.331Z,19.20
2018-06-17T15:22:02.964Z,19.10
2018-06-17T15:24:31.548Z,19.10
2018-06-17T15:27:00.013Z,19.10
2018-06-17T15:29:28.697Z,19.00
2018-06-17T15:32:02.803Z,19.00
2018-06-17T15:34:36.720Z,18.90
2018-06-17T15:37:10.683Z,18.90
2018-06-17T15:39:50.450Z,18.90
2018-06-17T15:42:18.983Z,19.00
2018-06-17T15:44:47.514Z,19.00
2018-06-17T15:47:16.103Z,19.00
2018-06-17T15:49:44.711Z,18.90
2018-06-17T15:52:13.370Z,18.90
2018-06-17T15:54:42.011Z,18.90
2018-06-17T15:57:10.610Z,18.90
2018-06-17T15:59:39.059Z,19.00
2018-06-17T16:02:07.703Z,19.00
2018-06-17T16:04:36.265Z,19.00
2018-06-17T16:07:04.957Z,19.10
2018-06-17T16:09:33.542Z,19.10
2018-06-17T16:13:09.539Z,19.10
2018-06-17T16:15:43.477Z,19.10
2018-06-17T16:18:17.191Z,19.10
2018-06-17T16:20:51.119Z,19.10
2018-06-17T16:23:19.692Z,19.10
2018-06-17T16:25:48.267Z,19.10
2018-06-17T16:28:16.766Z,19.00
2018-06-17T16:30:45.366Z,19.10
2018-06-17T16:33:13.874Z,19.10
2018-06-17T16:35:42.664Z,19.10
2018-06-17T16:38:11.176Z,19.00
2018-06-17T16:40:39.731Z,19.10
2018-06-17T16:43:08.328Z,19.00
2018-06-17T16:45:37.146Z,19.00
2018-06-17T16:48:05.808Z,18.90
2018-06-17T16:53:08.023Z,18.90
2018-06-17T16:55:41.778Z,18.90
2018-06-17T16:58:15.795Z,18.80
2018-06-17T17:03:12.762Z,18.80
2018-06-17T17:05:41.307Z,18.80
2018-06-17T17:08:09.998Z,18.70
2018-06-17T17:10:38.568Z,18.70
2018-06-17T17:13:07.191Z,18.60
2018-06-17T17:15:35.968Z,18.60
2018-06-17T17:18:04.474Z,18.50
2018-06-17T17:20:33.136Z,18.50
2018-06-17T17:25:30.078Z,18.40
2018-06-17T17:27:58.790Z,18.40
2018-06-17T17:30:27.302Z,18.30
2018-06-17T17:33:01.305Z,18.30
2018-06-17T17:35:35.215Z,18.30
2018-06-17T17:38:09.121Z,18.30
2018-06-17T17:40:41.622Z,18.20
2018-06-17T17:43:10.260Z,18.20
2018-06-17T17:45:44.491Z,18.20
2018-06-17T17:48:12.969Z,18.20
2018-06-17T17:50:41.643Z,18.20
2018-06-17T17:53:10.184Z,18.20
2018-06-17T17:55:38.777Z,18.20
2018-06-17T17:58:07.386Z,18.20
2018-06-17T18:00:36.082Z,18.10
2018-06-17T18:03:04.928Z,18.20
2018-06-17T18:05:33.574Z,18.20
2018-06-17T18:08:02.186Z,18.20
2018-06-17T18:10:30.807Z,18.20
2018-06-17T18:12:59.331Z,18.10
2018-06-17T18:15:27.862Z,18.20
2018-06-17T18:17:56.436Z,18.20
2018-06-17T18:20:25.060Z,18.20
2018-06-17T18:22:53.613Z,18.20
2018-06-17T18:25:27.617Z,18.20
2018-06-17T18:28:01.567Z,18.10
2018-06-17T18:31:06.000Z,18.10
2018-06-17T18:36:16.504Z,18.10
2018-06-17T18:38:46.473Z,18.10
2018-06-17T18:41:15.860Z,18.10
2018-06-17T18:43:44.398Z,18.00
2018-06-17T18:46:13.888Z,18.00
2018-06-17T18:48:42.433Z,18.00
2018-06-17T18:51:11.100Z,18.00
2018-06-17T18:53:39.588Z,17.90
2018-06-17T18:56:08.271Z,17.80
2018-06-17T18:58:36.839Z,17.90
2018-06-17T19:01:05.401Z,17.80
2018-06-17T19:03:34.181Z,17.80
2018-06-17T19:06:02.793Z,17.80
2018-06-17T19:08:36.487Z,17.70
2018-06-17T19:11:10.447Z,17.60
2018-06-17T19:13:45.275Z,17.50
2018-06-17T19:16:19.255Z,17.50
2018-06-17T19:18:48.170Z,17.50
2018-06-17T19:21:16.708Z,17.40
2018-06-17T19:23:45.334Z,17.40
2018-06-17T19:26:14.184Z,17.40
2018-06-17T19:28:42.807Z,17.40
2018-06-17T19:31:11.505Z,17.40
2018-06-17T19:33:40.423Z,17.40
2018-06-17T19:36:09.017Z,17.40
2018-06-17T19:38:37.563Z,17.40
2018-06-17T19:41:06.357Z,17.40
2018-06-17T19:43:34.972Z,17.40
2018-06-17T19:46:03.780Z,17.30
2018-06-17T19:48:32.373Z,17.30
2018-06-17T19:51:06.252Z,17.30
2018-06-17T19:53:40.108Z,17.20
2018-06-17T19:56:14.079Z,17.20
2018-06-17T19:58:48.172Z,17.20
2018-06-17T20:01:17.011Z,17.10
2018-06-17T20:03:45.515Z,17.10
2018-06-17T20:06:14.191Z,17.10
2018-06-17T20:08:42.728Z,17.10
2018-06-17T20:11:11.248Z,17.00
2018-06-17T20:13:39.766Z,17.00
2018-06-17T20:16:08.343Z,17.00
2018-06-17T20:18:37.095Z,17.00
2018-06-17T20:21:05.796Z,16.90
2018-06-17T20:23:34.313Z,16.90
2018-06-17T20:26:03.030Z,16.90
2018-06-17T20:28:31.704Z,16.80
2018-06-17T20:34:42.828Z,16.70
2018-06-17T20:37:16.603Z,16.70
2018-06-17T20:39:50.535Z,16.60
2018-06-17T20:42:24.289Z,16.60
2018-06-17T20:44:52.820Z,16.50
2018-06-17T20:47:21.600Z,16.60
2018-06-17T20:49:50.222Z,16.50
2018-06-17T20:52:18.869Z,16.60
2018-06-17T20:54:47.373Z,16.50
2018-06-17T20:57:16.178Z,16.50
2018-06-17T20:59:44.710Z,16.50
2018-06-17T21:02:13.298Z,16.40
2018-06-17T21:04:41.812Z,16.40
2018-06-17T21:07:10.433Z,16.40
2018-06-17T21:09:39.199Z,16.30
2018-06-17T21:12:07.764Z,16.30
2018-06-17T21:14:36.277Z,16.30
2018-06-17T21:17:04.824Z,16.30
2018-06-17T21:19:38.773Z,16.30
2018-06-17T21:22:12.595Z,16.30
2018-06-17T21:24:46.384Z,16.30
2018-06-17T21:27:20.274Z,16.30
2018-06-17T21:29:48.998Z,16.30
2018-06-17T21:32:18.386Z,16.30
2018-06-17T21:34:46.932Z,16.20
2018-06-17T21:37:15.442Z,16.20
2018-06-17T21:39:44.031Z,16.20
2018-06-17T21:42:12.738Z,16.20
2018-06-17T21:47:09.554Z,16.10
2018-06-17T21:49:38.052Z,16.10
2018-06-17T21:52:07.004Z,16.00
2018-06-17T21:54:35.506Z,16.00
2018-06-17T21:57:04.067Z,15.90
2018-06-17T21:59:32.716Z,15.90
2018-06-17T22:02:01.230Z,15.90
2018-06-17T22:04:35.091Z,15.80
2018-06-17T22:07:03.634Z,15.80
2018-06-17T22:09:37.415Z,15.80
2018-06-17T22:12:11.383Z,15.90
2018-06-17T22:14:45.303Z,15.90
2018-06-17T22:17:19.046Z,16.00
2018-06-17T22:19:48.102Z,16.00
2018-06-17T22:22:16.955Z,16.10
2018-06-17T22:24:45.673Z,16.10
2018-06-17T22:27:14.342Z,16.10
2018-06-17T22:29:43.343Z,16.10
2018-06-17T22:32:11.949Z,16.10
2018-06-17T22:34:40.811Z,16.10
2018-06-17T22:37:09.818Z,16.20
2018-06-17T22:39:39.048Z,16.10
2018-06-17T22:42:08.094Z,16.10
2018-06-17T22:44:36.870Z,16.10
2018-06-17T22:47:05.330Z,16.10
2018-06-17T22:49:34.031Z,16.10
2018-06-17T22:52:02.483Z,16.10
2018-06-17T22:54:42.173Z,16.10
2018-06-17T22:57:16.162Z,16.10
2018-06-17T22:59:49.963Z,16.10
2018-06-17T23:02:23.870Z,16.10
2018-06-17T23:04:57.851Z,16.10
2018-06-17T23:07:31.848Z,16.10
2018-06-17T23:10:00.391Z,16.10
2018-06-17T23:12:28.924Z,16.10
2018-06-17T23:14:57.388Z,16.10
2018-06-17T23:17:25.942Z,16.10
2018-06-17T23:22:22.900Z,16.10
2018-06-17T23:24:51.685Z,16.00
2018-06-17T23:27:20.355Z,15.90
2018-06-17T23:29:49.112Z,16.00
2018-06-17T23:32:17.646Z,16.00
2018-06-17T23:34:46.143Z,16.00
2018-06-17T23:37:14.760Z,16.00
2018-06-17T23:39:43.413Z,15.90
2018-06-17T23:42:12.148Z,16.00
2018-06-17T23:44:40.615Z,16.00
2018-06-17T23:47:14.504Z,16.00
2018-06-17T23:49:48.444Z,16.00
2018-06-17T23:52:22.398Z,16.00
2018-06-17T23:54:56.561Z,16.00
2018-06-17T23:57:25.027Z,15.90
2018-06-17T23:59:53.515Z,16.00
